createdAt,value
2022-09-06T00:01:39.610Z,49.41
2022-09-06T00:04:15.057Z,49.29
2022-09-06T00:06:42.392Z,49.55
2022-09-06T00:09:12.948Z,49.25
2022-09-06T00:11:43.465Z,49.28
2022-09-06T00:14:13.947Z,49.65
2022-09-06T00:16:44.536Z,50.43
2022-09-06T00:19:15.094Z,50.24
2022-09-06T00:21:45.581Z,49.95
2022-09-06T00:24:16.257Z,49.67
2022-09-06T00:26:46.721Z,50.70
2022-09-06T00:29:17.317Z,50.55
2022-09-06T00:31:47.921Z,50.63
2022-09-06T00:34:18.469Z,50.41
2022-09-06T00:36:49.187Z,50.42
2022-09-06T00:39:19.721Z,51.58
2022-09-06T00:41:50.416Z,50.64
2022-09-06T00:44:21.132Z,50.13
2022-09-06T00:46:54.879Z,51.43
2022-09-06T00:49:28.455Z,49.87
2022-09-06T00:52:02.021Z,51.16
2022-09-06T00:54:33.413Z,51.28
2022-09-06T00:57:04.483Z,50.74
2022-09-06T00:59:37.609Z,51.19
2022-09-06T01:02:09.540Z,52.12
2022-09-06T01:04:43.660Z,51.69
2022-09-06T01:07:17.247Z,52.89
2022-09-06T01:10:02.129Z,52.12
2022-09-06T01:12:47.866Z,51.89
2022-09-06T01:15:27.048Z,52.17
2022-09-06T01:18:18.693Z,52.04
2022-09-06T01:21:26.943Z,53.02
2022-09-06T01:24:21.505Z,51.94
2022-09-06T01:27:16.349Z,52.31
2022-09-06T01:29:53.010Z,51.84
2022-09-06T01:32:29.243Z,52.67
2022-09-06T01:35:05.519Z,51.24
2022-09-06T01:37:36.137Z,52.09
2022-09-06T01:40:07.714Z,51.62
2022-09-06T01:42:41.474Z,52.82
2022-09-06T01:45:15.048Z,52.45
2022-09-06T01:48:08.043Z,51.54
2022-09-06T01:50:47.552Z,52.78
2022-09-06T01:53:22.441Z,52.54
2022-09-06T01:56:14.093Z,52.32
2022-09-06T01:59:07.069Z,51.27
2022-09-06T02:01:40.813Z,52.72
2022-09-06T02:04:20.520Z,52.52
2022-09-06T02:06:54.733Z,51.40
2022-09-06T02:09:27.736Z,52.18
2022-09-06T02:12:00.801Z,52.02
2022-09-06T02:14:43.264Z,51.23
2022-09-06T02:17:16.845Z,51.71
2022-09-06T02:19:53.741Z,52.23
2022-09-06T02:22:27.244Z,52.77
2022-09-06T02:25:00.001Z,52.10
2022-09-06T02:27:31.168Z,52.85
2022-09-06T02:30:03.059Z,51.85
2022-09-06T02:32:36.635Z,52.14
2022-09-06T02:35:10.206Z,53.12
2022-09-06T02:37:42.154Z,53.36
2022-09-06T02:40:13.311Z,53.08
2022-09-06T02:42:43.780Z,53.90
2022-09-06T02:45:14.286Z,53.74
2022-09-06T02:47:44.743Z,53.54
2022-09-06T02:50:15.339Z,55.04
2022-09-06T02:52:45.869Z,53.46
2022-09-06T02:55:16.444Z,55.08
2022-09-06T02:57:47.366Z,53.90
2022-09-06T03:00:17.935Z,54.19
2022-09-06T03:02:48.615Z,54.68
2022-09-06T03:05:19.086Z,53.86
2022-09-06T03:07:49.931Z,54.28
2022-09-06T03:10:20.726Z,54.44
2022-09-06T03:12:51.280Z,55.26
2022-09-06T03:15:22.472Z,55.82
2022-09-06T03:17:53.008Z,56.38
2022-09-06T03:20:23.556Z,56.62
2022-09-06T03:22:54.007Z,56.55
2022-09-06T03:25:25.640Z,57.12
2022-09-06T03:27:56.106Z,56.65
2022-09-06T03:30:26.657Z,56.46
2022-09-06T03:32:59.815Z,56.31
2022-09-06T03:35:29.540Z,56.90
2022-09-06T03:38:00.025Z,56.49
2022-09-06T03:40:30.558Z,57.60
2022-09-06T03:43:01.102Z,57.44
2022-09-06T03:45:31.621Z,56.78
2022-09-06T03:48:02.240Z,56.77
2022-09-06T03:50:32.673Z,57.53
2022-09-06T03:53:03.135Z,57.74
2022-09-06T03:55:33.581Z,57.56
2022-09-06T03:58:04.185Z,58.32
2022-09-06T04:00:34.803Z,58.15
2022-09-06T04:03:05.396Z,58.04
2022-09-06T04:05:36.183Z,58.37
2022-09-06T04:08:06.724Z,58.27
2022-09-06T04:10:38.139Z,58.45
2022-09-06T04:13:08.600Z,58.36
2022-09-06T04:15:39.063Z,58.68
2022-09-06T04:18:09.597Z,58.56
2022-09-06T04:20:40.165Z,59.48
2022-09-06T04:23:10.827Z,58.50
2022-09-06T04:25:41.382Z,59.50
2022-09-06T04:28:11.835Z,58.19
2022-09-06T04:30:42.436Z,58.91
2022-09-06T04:33:13.054Z,57.74
2022-09-06T04:35:43.527Z,58.39
2022-09-06T04:38:14.041Z,59.22
2022-09-06T04:40:44.623Z,58.94
2022-09-06T04:43:15.218Z,58.95
2022-09-06T04:45:46.066Z,58.97
2022-09-06T04:48:17.096Z,59.34
2022-09-06T04:50:47.604Z,57.10
2022-09-06T04:53:18.126Z,59.32
2022-09-06T04:55:48.795Z,59.00
2022-09-06T04:58:19.392Z,59.02
2022-09-06T05:00:49.910Z,59.38
2022-09-06T05:03:20.425Z,58.19
2022-09-06T05:05:50.956Z,59.22
2022-09-06T05:08:21.603Z,59.36
2022-09-06T05:10:52.841Z,59.56
2022-09-06T05:13:23.396Z,59.98
2022-09-06T05:15:53.948Z,59.31
2022-09-06T05:18:24.509Z,59.58
2022-09-06T05:20:56.049Z,59.24
2022-09-06T05:23:26.699Z,59.54
2022-09-06T05:25:57.236Z,59.53
2022-09-06T05:28:27.943Z,59.08
2022-09-06T05:31:12.424Z,59.80
2022-09-06T05:33:43.004Z,59.00
2022-09-06T05:36:13.525Z,58.57
2022-09-06T05:38:44.042Z,59.90
2022-09-06T05:41:14.518Z,57.91
2022-09-06T05:43:45.481Z,59.16
2022-09-06T05:46:17.600Z,58.27
2022-09-06T05:49:04.007Z,57.69
2022-09-06T05:51:34.817Z,58.97
2022-09-06T05:54:05.360Z,58.82
2022-09-06T05:56:35.877Z,58.21
2022-09-06T05:59:06.338Z,58.53
2022-09-06T06:01:37.019Z,58.27
2022-09-06T06:04:08.578Z,57.65
2022-09-06T06:06:39.113Z,58.13
2022-09-06T06:09:09.704Z,58.42
2022-09-06T06:11:40.907Z,58.10
2022-09-06T06:14:11.419Z,58.12
2022-09-06T06:16:41.995Z,56.92
2022-09-06T06:19:12.511Z,56.43
2022-09-06T06:21:43.729Z,57.70
2022-09-06T06:24:14.330Z,57.32
2022-09-06T06:26:44.823Z,57.29
2022-09-06T06:29:15.625Z,56.48
2022-09-06T06:31:46.146Z,56.87
2022-09-06T06:34:18.324Z,56.73
2022-09-06T06:36:49.228Z,56.60
2022-09-06T06:39:19.691Z,57.73
2022-09-06T06:41:50.759Z,57.28
2022-09-06T06:44:21.340Z,56.84
2022-09-06T06:46:52.108Z,57.00
2022-09-06T06:49:22.557Z,56.64
2022-09-06T06:51:53.103Z,55.62
2022-09-06T06:54:23.648Z,55.51
2022-09-06T06:56:54.211Z,55.54
2022-09-06T06:59:24.698Z,56.71
2022-09-06T07:01:55.257Z,55.35
2022-09-06T07:04:25.814Z,55.99
2022-09-06T07:12:02.059Z,56.47
2022-09-06T07:14:32.669Z,56.15
2022-09-06T07:17:09.236Z,56.62
2022-09-06T07:22:11.846Z,56.21
2022-09-06T07:24:42.330Z,57.28
2022-09-06T07:29:44.975Z,55.69
2022-09-06T07:32:15.667Z,56.23
2022-09-06T07:34:46.220Z,57.02
2022-09-06T07:37:16.986Z,56.23
2022-09-06T07:39:47.556Z,56.40
2022-09-06T07:42:18.138Z,55.91
2022-09-06T07:44:48.668Z,56.90
2022-09-06T07:55:00.392Z,57.24
2022-09-06T07:57:30.986Z,57.00
2022-09-06T08:00:01.516Z,55.63
2022-09-06T08:02:32.427Z,55.64
2022-09-06T08:10:07.538Z,55.76
2022-09-06T08:12:38.072Z,56.53
2022-09-06T08:15:09.515Z,56.41
2022-09-06T08:17:39.986Z,55.56
2022-09-06T08:20:11.070Z,54.98
2022-09-06T08:22:41.747Z,54.79
2022-09-06T08:25:12.238Z,53.98
2022-09-06T08:27:42.785Z,54.57
2022-09-06T08:30:14.393Z,54.43
2022-09-06T08:32:44.969Z,54.65
2022-09-06T08:35:15.626Z,54.46
2022-09-06T08:37:46.199Z,54.76
2022-09-06T08:40:19.842Z,54.89
2022-09-06T08:42:50.541Z,54.45
2022-09-06T08:45:23.277Z,54.84
2022-09-06T08:47:54.164Z,53.10
2022-09-06T08:50:28.064Z,54.88
2022-09-06T08:53:18.075Z,53.68
2022-09-06T08:55:40.005Z,53.15
2022-09-06T08:58:22.664Z,52.96
2022-09-06T09:00:58.173Z,54.46
2022-09-06T09:03:37.012Z,53.21
2022-09-06T09:06:10.104Z,52.05
2022-09-06T09:09:07.885Z,52.10
2022-09-06T09:11:40.630Z,51.61
2022-09-06T09:14:20.201Z,52.82
2022-09-06T09:16:55.914Z,51.55
2022-09-06T09:19:26.434Z,51.25
2022-09-06T09:21:56.905Z,50.91
2022-09-06T09:24:27.406Z,50.00
2022-09-06T09:27:13.360Z,49.95
2022-09-06T09:32:39.981Z,49.83
2022-09-06T09:35:36.696Z,49.40
2022-09-06T09:38:13.094Z,49.80
2022-09-06T09:40:55.637Z,49.92
2022-09-06T09:43:41.289Z,49.06
2022-09-06T09:46:17.914Z,48.99
2022-09-06T09:49:08.144Z,50.31
2022-09-06T09:51:44.483Z,50.12
2022-09-06T09:54:17.723Z,49.11
2022-09-06T09:56:53.518Z,48.89
2022-09-06T09:59:32.811Z,48.95
2022-09-06T10:02:05.476Z,48.91
2022-09-06T10:07:18.217Z,49.46
2022-09-06T10:09:51.565Z,49.01
2022-09-06T10:12:40.259Z,50.12
2022-09-06T10:15:34.153Z,49.19
2022-09-06T10:18:05.336Z,50.30
2022-09-06T10:20:50.931Z,49.64
2022-09-06T10:26:05.486Z,49.09
2022-09-06T10:28:45.481Z,48.89
2022-09-06T10:31:24.587Z,49.22
2022-09-06T10:34:18.113Z,48.97
2022-09-06T10:36:54.724Z,49.24
2022-09-06T10:39:58.374Z,48.35
2022-09-06T10:42:50.345Z,47.93
2022-09-06T10:45:26.715Z,49.44
2022-09-06T10:48:17.251Z,48.72
2022-09-06T10:50:50.913Z,49.09
2022-09-06T10:53:33.679Z,50.23
2022-09-06T10:56:09.978Z,49.13
2022-09-06T11:01:24.625Z,50.03
2022-09-06T11:04:01.979Z,48.53
2022-09-06T11:06:33.424Z,49.29
2022-09-06T11:09:15.854Z,48.64
2022-09-06T11:11:52.250Z,48.39
2022-09-06T11:14:25.771Z,48.07
2022-09-06T11:17:03.024Z,47.37
2022-09-06T11:19:42.119Z,47.75
2022-09-06T11:22:42.816Z,48.02
2022-09-06T11:25:25.227Z,48.10
2022-09-06T11:27:58.949Z,48.86
2022-09-06T11:30:31.545Z,49.04
2022-09-06T11:33:26.104Z,48.45
2022-09-06T11:36:18.326Z,49.10
2022-09-06T11:38:59.197Z,49.16
2022-09-06T11:41:35.425Z,49.24
2022-09-06T11:44:06.394Z,49.85
2022-09-06T11:46:42.761Z,48.97
2022-09-06T11:49:31.794Z,48.99
2022-09-06T11:52:03.602Z,49.03
2022-09-06T11:54:37.183Z,48.89
2022-09-06T11:57:16.598Z,49.63
2022-09-06T11:59:55.385Z,49.02
2022-09-06T12:02:45.057Z,49.41
2022-09-06T12:05:26.099Z,50.43
2022-09-06T12:08:16.221Z,49.55
2022-09-06T12:11:08.078Z,49.82
2022-09-06T12:13:47.659Z,48.80
2022-09-06T12:16:18.870Z,48.93
2022-09-06T12:18:52.570Z,48.86
2022-09-06T12:21:40.499Z,48.29
2022-09-06T12:24:30.704Z,48.50
2022-09-06T12:27:16.292Z,48.95
2022-09-06T12:30:05.532Z,48.83
2022-09-06T12:32:39.411Z,48.38
2022-09-06T12:37:59.182Z,48.82
2022-09-06T12:40:41.377Z,48.21
2022-09-06T12:43:14.578Z,47.80
2022-09-06T12:45:47.551Z,48.15
2022-09-06T12:48:33.306Z,48.05
2022-09-06T12:51:10.976Z,47.77
2022-09-06T12:53:51.889Z,48.59
2022-09-06T12:56:24.809Z,48.34
2022-09-06T12:59:14.192Z,47.54
2022-09-06T13:01:49.093Z,47.98
2022-09-06T13:04:28.441Z,47.66
2022-09-06T13:07:01.196Z,48.29
2022-09-06T13:09:33.162Z,47.24
2022-09-06T13:12:06.813Z,47.29
2022-09-06T13:14:37.470Z,46.91
2022-09-06T13:17:08.387Z,46.73
2022-09-06T13:19:42.488Z,47.13
2022-09-06T13:22:14.535Z,46.85
2022-09-06T13:24:47.787Z,46.46
2022-09-06T13:27:34.603Z,47.53
2022-09-06T13:30:09.084Z,46.08
2022-09-06T13:32:42.798Z,46.64
2022-09-06T13:35:16.308Z,46.46
2022-09-06T13:37:48.496Z,46.92
2022-09-06T13:40:59.837Z,46.92
2022-09-06T13:43:14.926Z,46.62
2022-09-06T13:45:47.176Z,45.98
2022-09-06T13:48:28.743Z,46.05
2022-09-06T13:50:49.791Z,46.30
2022-09-06T13:53:23.370Z,45.75
2022-09-06T13:55:53.897Z,45.38
2022-09-06T13:58:24.468Z,44.71
2022-09-06T14:00:55.674Z,43.42
2022-09-06T14:03:29.421Z,43.59
2022-09-06T14:06:00.709Z,44.52
2022-09-06T14:08:55.747Z,44.20
2022-09-06T14:11:04.895Z,45.29
2022-09-06T14:13:35.476Z,45.20
2022-09-06T14:16:06.569Z,45.20
2022-09-06T14:18:37.297Z,45.96
2022-09-06T14:21:08.342Z,46.58
2022-09-06T14:23:39.267Z,45.83
2022-09-06T14:26:10.433Z,46.61
2022-09-06T14:28:40.877Z,46.73
2022-09-06T14:31:19.550Z,46.30
2022-09-06T14:33:50.681Z,46.21
2022-09-06T14:36:23.720Z,46.13
2022-09-06T14:38:54.729Z,46.04
2022-09-06T14:41:26.112Z,45.52
2022-09-06T14:43:58.366Z,45.61
2022-09-06T14:46:29.898Z,46.19
2022-09-06T14:49:09.918Z,47.12
2022-09-06T14:51:40.929Z,46.77
2022-09-06T14:54:13.207Z,46.85
2022-09-06T14:56:44.070Z,46.35
2022-09-06T14:59:15.078Z,47.10
2022-09-06T15:01:45.821Z,47.45
2022-09-06T15:04:16.413Z,48.22
2022-09-06T15:06:47.823Z,48.55
2022-09-06T15:09:18.775Z,48.38
2022-09-06T15:11:53.143Z,48.80
2022-09-06T15:14:26.431Z,49.37
2022-09-06T15:16:59.790Z,50.07
2022-09-06T15:19:32.453Z,49.98
2022-09-06T15:22:04.077Z,49.60
2022-09-06T15:24:34.777Z,49.22
2022-09-06T15:27:05.629Z,49.73
2022-09-06T15:29:36.332Z,50.08
2022-09-06T15:32:07.331Z,49.92
2022-09-06T15:34:37.840Z,50.26
2022-09-06T15:37:08.268Z,50.54
2022-09-06T15:39:38.795Z,51.78
2022-09-06T15:42:09.934Z,51.11
2022-09-06T15:44:40.479Z,50.93
2022-09-06T15:47:13.168Z,51.31
2022-09-06T15:49:44.020Z,51.44
2022-09-06T15:52:14.551Z,51.30
2022-09-06T15:55:02.959Z,51.75
2022-09-06T15:57:33.385Z,52.09
2022-09-06T16:00:05.287Z,50.98
2022-09-06T16:02:35.748Z,51.93
2022-09-06T16:05:06.988Z,51.22
2022-09-06T16:07:39.048Z,51.66
2022-09-06T16:10:11.602Z,51.83
2022-09-06T16:12:44.664Z,51.48
2022-09-06T16:15:15.017Z,52.23
2022-09-06T16:17:45.466Z,52.17
2022-09-06T16:20:16.276Z,52.36
2022-09-06T16:22:48.624Z,52.57
2022-09-06T16:25:19.083Z,52.56
2022-09-06T16:27:49.868Z,52.00
2022-09-06T16:30:20.338Z,51.80
2022-09-06T16:32:50.859Z,52.86
2022-09-06T16:35:21.385Z,52.49
2022-09-06T16:37:52.757Z,52.06
2022-09-06T16:40:27.589Z,52.50
2022-09-06T16:42:58.263Z,51.69
2022-09-06T16:45:28.805Z,52.10
2022-09-06T16:47:59.323Z,52.41
2022-09-06T16:50:30.109Z,52.28
2022-09-06T16:53:01.397Z,51.59
2022-09-06T16:55:32.001Z,51.09
2022-09-06T16:58:02.455Z,51.10
2022-09-06T17:00:33.002Z,51.69
2022-09-06T17:03:03.562Z,52.78
2022-09-06T17:05:35.829Z,51.86
2022-09-06T17:08:06.409Z,51.61
2022-09-06T17:10:39.395Z,51.05
2022-09-06T17:13:10.021Z,51.66
2022-09-06T17:15:58.681Z,52.12
2022-09-06T17:18:29.190Z,51.87
2022-09-06T17:21:01.994Z,52.36
2022-09-06T17:23:33.034Z,53.16
2022-09-06T17:26:04.310Z,51.92
2022-09-06T17:28:36.886Z,52.13
2022-09-06T17:31:08.147Z,52.50
2022-09-06T17:33:38.675Z,52.90
2022-09-06T17:36:14.831Z,51.96
2022-09-06T17:38:52.730Z,52.30
2022-09-06T17:41:25.004Z,52.99
2022-09-06T17:43:57.280Z,51.98
2022-09-06T17:46:29.153Z,51.92
2022-09-06T17:49:00.201Z,51.63
2022-09-06T17:51:31.123Z,52.00
2022-09-06T17:54:01.830Z,52.72
2022-09-06T17:56:33.743Z,52.28
2022-09-06T17:59:07.701Z,52.46
2022-09-06T18:01:41.159Z,52.36
2022-09-06T18:04:12.925Z,52.73
2022-09-06T18:06:45.989Z,52.88
2022-09-06T18:09:17.932Z,52.37
2022-09-06T18:11:48.430Z,53.31
2022-09-06T18:14:20.857Z,52.34
2022-09-06T18:16:53.033Z,52.28
2022-09-06T18:19:23.674Z,53.11
2022-09-06T18:21:56.890Z,53.11
2022-09-06T18:24:27.700Z,51.53
2022-09-06T18:26:58.233Z,52.96
2022-09-06T18:29:28.867Z,52.86
2022-09-06T18:31:59.583Z,52.06
2022-09-06T18:34:30.338Z,52.67
2022-09-06T18:37:00.888Z,52.46
2022-09-06T18:39:31.503Z,53.10
2022-09-06T18:42:03.873Z,53.21
2022-09-06T18:44:35.527Z,53.21
2022-09-06T18:47:08.785Z,53.67
2022-09-06T18:49:43.896Z,53.09
2022-09-06T18:52:12.010Z,52.80
2022-09-06T18:54:43.722Z,52.85
2022-09-06T18:57:15.773Z,52.89
2022-09-06T18:59:46.518Z,53.44
2022-09-06T19:02:17.043Z,52.91
2022-09-06T19:04:50.242Z,53.31
2022-09-06T19:07:20.769Z,53.77
2022-09-06T19:09:51.318Z,52.66
2022-09-06T19:12:22.267Z,53.92
2022-09-06T19:14:52.818Z,54.75
2022-09-06T19:17:23.342Z,53.83
2022-09-06T19:19:54.012Z,54.38
2022-09-06T19:22:24.599Z,53.48
2022-09-06T19:24:56.606Z,52.90
2022-09-06T19:27:27.477Z,52.83
2022-09-06T19:29:57.982Z,53.35
2022-09-06T19:32:28.534Z,53.23
2022-09-06T19:35:00.107Z,53.91
2022-09-06T19:37:31.526Z,52.71
2022-09-06T19:40:02.125Z,54.06
2022-09-06T19:42:32.799Z,53.66
2022-09-06T19:45:03.286Z,53.47
2022-09-06T19:47:33.819Z,52.94
2022-09-06T19:50:04.344Z,52.17
2022-09-06T19:52:34.856Z,52.95
2022-09-06T19:55:05.831Z,53.78
2022-09-06T19:57:36.278Z,52.24
2022-09-06T20:00:07.728Z,53.41
2022-09-06T20:02:38.170Z,52.51
2022-09-06T20:05:09.208Z,52.92
2022-09-06T20:07:39.706Z,52.17
2022-09-06T20:10:10.867Z,52.57
2022-09-06T20:12:41.380Z,53.72
2022-09-06T20:15:12.740Z,52.91
2022-09-06T20:17:43.199Z,52.60
2022-09-06T20:20:13.739Z,52.07
2022-09-06T20:22:47.895Z,52.29
2022-09-06T20:25:18.692Z,52.32
2022-09-06T20:27:49.235Z,52.38
2022-09-06T20:30:19.757Z,51.91
2022-09-06T20:32:50.188Z,52.70
2022-09-06T20:35:20.650Z,53.00
2022-09-06T20:37:51.519Z,52.34
2022-09-06T20:40:22.042Z,51.74
2022-09-06T20:42:53.625Z,52.59
2022-09-06T20:45:25.265Z,53.27
2022-09-06T20:47:57.547Z,51.83
2022-09-06T20:50:28.161Z,52.03
2022-09-06T20:52:58.615Z,52.05
2022-09-06T20:55:29.135Z,52.08
2022-09-06T20:57:59.581Z,52.08
2022-09-06T21:00:30.309Z,52.32
2022-09-06T21:03:00.979Z,52.30
2022-09-06T21:05:31.585Z,52.14
2022-09-06T21:08:02.268Z,52.29
2022-09-06T21:10:32.717Z,52.04
2022-09-06T21:13:03.701Z,52.13
2022-09-06T21:15:35.961Z,53.06
2022-09-06T21:18:06.462Z,53.67
2022-09-06T21:20:37.204Z,52.30
2022-09-06T21:23:07.968Z,53.35
2022-09-06T21:25:38.423Z,53.23
2022-09-06T21:28:08.932Z,52.17
2022-09-06T21:30:39.412Z,51.83
2022-09-06T21:33:09.876Z,53.13
2022-09-06T21:35:40.345Z,51.92
2022-09-06T21:38:10.944Z,52.30
2022-09-06T21:40:41.417Z,52.73
2022-09-06T21:43:11.974Z,52.42
2022-09-06T21:45:42.436Z,52.79
2022-09-06T21:48:14.592Z,52.73
2022-09-06T21:50:47.876Z,53.09
2022-09-06T21:53:19.236Z,51.91
2022-09-06T21:55:50.452Z,52.81
2022-09-06T21:58:20.971Z,53.77
2022-09-06T22:00:58.169Z,53.67
2022-09-06T22:03:30.991Z,53.48
2022-09-06T22:06:10.236Z,53.32
2022-09-06T22:08:43.830Z,54.11
2022-09-06T22:11:23.768Z,55.40
2022-09-06T22:13:54.518Z,55.76
2022-09-06T22:16:25.328Z,54.29
2022-09-06T22:18:56.269Z,53.94
2022-09-06T22:21:26.999Z,53.68
2022-09-06T22:24:00.290Z,53.85
2022-09-06T22:26:32.735Z,53.58
2022-09-06T22:29:06.428Z,52.22
2022-09-06T22:31:37.350Z,53.79
2022-09-06T22:34:08.458Z,53.05
2022-09-06T22:36:39.027Z,53.41
2022-09-06T22:39:09.835Z,53.34
2022-09-06T22:41:40.320Z,52.75
2022-09-06T22:44:10.821Z,53.58
2022-09-06T22:46:41.380Z,52.61
2022-09-06T22:49:12.259Z,53.65
2022-09-06T22:51:42.730Z,54.96
2022-09-06T22:54:13.347Z,54.38
2022-09-06T22:56:43.803Z,54.06
2022-09-06T22:59:14.230Z,54.70
2022-09-06T23:01:44.863Z,53.10
2022-09-06T23:04:15.438Z,54.36
2022-09-06T23:06:46.164Z,54.27
2022-09-06T23:09:16.681Z,54.24
2022-09-06T23:11:47.130Z,54.03
2022-09-06T23:14:17.621Z,53.88
2022-09-06T23:16:48.097Z,53.60
2022-09-06T23:19:18.541Z,54.40
2022-09-06T23:21:49.135Z,53.40
2022-09-06T23:24:19.583Z,53.73
2022-09-06T23:26:50.102Z,53.75
2022-09-06T23:29:20.989Z,54.33
2022-09-06T23:31:51.516Z,54.42
2022-09-06T23:34:22.184Z,52.97
2022-09-06T23:36:53.189Z,53.15
2022-09-06T23:39:23.637Z,54.50
2022-09-06T23:41:54.284Z,54.74
2022-09-06T23:44:24.977Z,53.51
2022-09-06T23:46:55.513Z,53.04
2022-09-06T23:49:26.105Z,54.64
2022-09-06T23:51:56.634Z,54.31
2022-09-06T23:54:27.205Z,53.24
2022-09-06T23:56:57.737Z,54.40
2022-09-06T23:59:28.182Z,53.36
